sensor_id;sensor_type;location;lat;lon;timestamp;pressure;altitude;pressure_sealevel;temperature;humidity
84492;BME280;74718;40.778;21.400;2024-02-23T00:02:20;93832.36;;;5.52;55.78
84492;BME280;74718;40.778;21.400;2024-02-23T00:04:45;93825.05;;;5.39;56.19
84492;BME280;74718;40.778;21.400;2024-02-23T00:07:11;93820.98;;;5.34;56.47
84492;BME280;74718;40.778;21.400;2024-02-23T00:09:37;93825.55;;;5.36;56.80
84492;BME280;74718;40.778;21.400;2024-02-23T00:12:04;93820.17;;;5.42;57.04
84492;BME280;74718;40.778;21.400;2024-02-23T00:14:30;93819.52;;;5.47;57.09
84492;BME280;74718;40.778;21.400;2024-02-23T00:17:01;93817.28;;;5.48;57.44
84492;BME280;74718;40.778;21.400;2024-02-23T00:19:26;93818.92;;;5.56;57.33
84492;BME280;74718;40.778;21.400;2024-02-23T00:21:52;93817.34;;;5.58;57.25
84492;BME280;74718;40.778;21.400;2024-02-23T00:24:18;93807.39;;;5.53;57.28
84492;BME280;74718;40.778;21.400;2024-02-23T00:26:46;93810.17;;;5.50;57.20
84492;BME280;74718;40.778;21.400;2024-02-23T00:29:12;93805.20;;;5.40;57.24
84492;BME280;74718;40.778;21.400;2024-02-23T00:31:38;93802.98;;;5.38;57.09
84492;BME280;74718;40.778;21.400;2024-02-23T00:34:06;93803.09;;;5.32;56.93
84492;BME280;74718;40.778;21.400;2024-02-23T00:36:38;93802.06;;;5.26;56.98
84492;BME280;74718;40.778;21.400;2024-02-23T00:39:03;93806.76;;;5.22;56.93
84492;BME280;74718;40.778;21.400;2024-02-23T00:41:29;93804.23;;;5.20;56.99
84492;BME280;74718;40.778;21.400;2024-02-23T00:43:54;93805.67;;;5.23;56.91
84492;BME280;74718;40.778;21.400;2024-02-23T00:46:20;93799.41;;;5.19;56.62
84492;BME280;74718;40.778;21.400;2024-02-23T00:48:46;93797.27;;;5.12;56.60
84492;BME280;74718;40.778;21.400;2024-02-23T00:51:12;93794.45;;;5.03;57.07
84492;BME280;74718;40.778;21.400;2024-02-23T00:53:37;93794.63;;;5.00;57.26
84492;BME280;74718;40.778;21.400;2024-02-23T00:56:03;93795.83;;;4.92;56.97
84492;BME280;74718;40.778;21.400;2024-02-23T00:58:29;93793.73;;;4.88;57.14
84492;BME280;74718;40.778;21.400;2024-02-23T01:00:55;93794.35;;;4.88;57.34
84492;BME280;74718;40.778;21.400;2024-02-23T01:03:20;93793.27;;;4.84;57.31
84492;BME280;74718;40.778;21.400;2024-02-23T01:41:46;93775.31;;;4.55;58.68
84492;BME280;74718;40.778;21.400;2024-02-23T01:44:11;93768.07;;;4.49;58.78
84492;BME280;74718;40.778;21.400;2024-02-23T01:46:37;93764.65;;;4.50;59.01
84492;BME280;74718;40.778;21.400;2024-02-23T01:49:04;93761.16;;;4.54;59.45
84492;BME280;74718;40.778;21.400;2024-02-23T01:51:31;93758.73;;;4.60;59.89
84492;BME280;74718;40.778;21.400;2024-02-23T01:53:58;93756.51;;;4.69;59.88
84492;BME280;74718;40.778;21.400;2024-02-23T01:56:23;93758.30;;;4.82;59.83
84492;BME280;74718;40.778;21.400;2024-02-23T01:58:49;93759.30;;;4.95;59.48
84492;BME280;74718;40.778;21.400;2024-02-23T02:01:14;93755.88;;;4.97;59.65
84492;BME280;74718;40.778;21.400;2024-02-23T02:03:40;93756.52;;;5.02;59.54
84492;BME280;74718;40.778;21.400;2024-02-23T02:06:06;93755.31;;;5.04;59.57
84492;BME280;74718;40.778;21.400;2024-02-23T02:08:36;93751.00;;;5.06;59.75
84492;BME280;74718;40.778;21.400;2024-02-23T02:11:02;93749.36;;;5.15;59.62
84492;BME280;74718;40.778;21.400;2024-02-23T02:13:28;93747.99;;;5.25;59.64
84492;BME280;74718;40.778;21.400;2024-02-23T02:15:54;93744.14;;;5.35;59.60
84492;BME280;74718;40.778;21.400;2024-02-23T02:18:19;93737.81;;;5.40;59.46
84492;BME280;74718;40.778;21.400;2024-02-23T02:20:54;93738.95;;;5.47;59.72
84492;BME280;74718;40.778;21.400;2024-02-23T02:23:20;93739.60;;;5.56;59.84
84492;BME280;74718;40.778;21.400;2024-02-23T02:25:45;93739.21;;;5.59;59.85
84492;BME280;74718;40.778;21.400;2024-02-23T02:28:11;93736.64;;;5.62;60.03
84492;BME280;74718;40.778;21.400;2024-02-23T02:30:37;93735.38;;;5.69;59.76
84492;BME280;74718;40.778;21.400;2024-02-23T02:33:03;93735.14;;;5.72;60.32
84492;BME280;74718;40.778;21.400;2024-02-23T02:35:28;93730.70;;;5.77;61.10
84492;BME280;74718;40.778;21.400;2024-02-23T02:37:54;93734.92;;;5.87;60.79
84492;BME280;74718;40.778;21.400;2024-02-23T02:40:19;93733.90;;;5.88;60.55
84492;BME280;74718;40.778;21.400;2024-02-23T02:42:45;93734.66;;;5.91;61.46
84492;BME280;74718;40.778;21.400;2024-02-23T02:45:10;93735.35;;;6.04;62.26
84492;BME280;74718;40.778;21.400;2024-02-23T02:47:36;93733.04;;;6.14;62.62
84492;BME280;74718;40.778;21.400;2024-02-23T02:50:02;93730.79;;;6.22;62.87
84492;BME280;74718;40.778;21.400;2024-02-23T02:52:27;93725.20;;;6.31;62.74
84492;BME280;74718;40.778;21.400;2024-02-23T02:54:54;93721.70;;;6.48;63.46
84492;BME280;74718;40.778;21.400;2024-02-23T02:57:19;93725.50;;;6.60;63.61
84492;BME280;74718;40.778;21.400;2024-02-23T02:59:45;93728.86;;;6.64;63.45
84492;BME280;74718;40.778;21.400;2024-02-23T03:02:11;93723.80;;;6.69;64.03
84492;BME280;74718;40.778;21.400;2024-02-23T03:04:37;93721.52;;;6.81;63.81
84492;BME280;74718;40.778;21.400;2024-02-23T03:07:03;93718.27;;;6.90;64.07
84492;BME280;74718;40.778;21.400;2024-02-23T03:09:28;93720.21;;;6.93;64.08
84492;BME280;74718;40.778;21.400;2024-02-23T03:11:53;93715.26;;;6.99;64.21
84492;BME280;74718;40.778;21.400;2024-02-23T03:14:19;93717.64;;;7.02;64.12
84492;BME280;74718;40.778;21.400;2024-02-23T03:16:46;93717.44;;;7.03;64.42
84492;BME280;74718;40.778;21.400;2024-02-23T03:19:13;93713.56;;;7.06;64.57
84492;BME280;74718;40.778;21.400;2024-02-23T03:21:38;93714.40;;;7.04;64.88
84492;BME280;74718;40.778;21.400;2024-02-23T03:24:04;93714.55;;;7.04;64.41
84492;BME280;74718;40.778;21.400;2024-02-23T03:26:29;93711.52;;;7.08;64.48
84492;BME280;74718;40.778;21.400;2024-02-23T03:28:55;93711.04;;;7.10;64.38
84492;BME280;74718;40.778;21.400;2024-02-23T03:31:20;93710.89;;;7.10;64.67
84492;BME280;74718;40.778;21.400;2024-02-23T03:33:46;93715.33;;;7.16;64.85
84492;BME280;74718;40.778;21.400;2024-02-23T03:36:11;93713.41;;;7.21;64.92
84492;BME280;74718;40.778;21.400;2024-02-23T03:38:37;93710.73;;;7.24;65.12
84492;BME280;74718;40.778;21.400;2024-02-23T03:41:03;93710.90;;;7.27;65.01
84492;BME280;74718;40.778;21.400;2024-02-23T03:43:28;93711.96;;;7.29;64.96
84492;BME280;74718;40.778;21.400;2024-02-23T03:45:54;93708.52;;;7.31;65.07
84492;BME280;74718;40.778;21.400;2024-02-23T03:48:19;93708.27;;;7.34;64.95
84492;BME280;74718;40.778;21.400;2024-02-23T03:50:45;93709.13;;;7.38;65.17
84492;BME280;74718;40.778;21.400;2024-02-23T03:53:11;93704.34;;;7.38;64.79
84492;BME280;74718;40.778;21.400;2024-02-23T03:55:36;93706.54;;;7.35;64.75
84492;BME280;74718;40.778;21.400;2024-02-23T03:58:02;93703.06;;;7.32;64.60
84492;BME280;74718;40.778;21.400;2024-02-23T04:00:27;93699.33;;;7.30;64.86
84492;BME280;74718;40.778;21.400;2024-02-23T04:02:53;93699.54;;;7.31;64.64
84492;BME280;74718;40.778;21.400;2024-02-23T04:05:19;93693.50;;;7.28;65.04
84492;BME280;74718;40.778;21.400;2024-02-23T04:07:47;93692.34;;;7.27;64.82
84492;BME280;74718;40.778;21.400;2024-02-23T04:10:12;93693.91;;;7.24;64.90
84492;BME280;74718;40.778;21.400;2024-02-23T04:12:42;93693.90;;;7.21;65.08
84492;BME280;74718;40.778;21.400;2024-02-23T04:15:09;93695.69;;;7.20;65.50
84492;BME280;74718;40.778;21.400;2024-02-23T04:17:34;93693.35;;;7.23;65.32
84492;BME280;74718;40.778;21.400;2024-02-23T04:20:05;93694.73;;;7.26;65.49
84492;BME280;74718;40.778;21.400;2024-02-23T04:22:31;93697.79;;;7.27;65.50
84492;BME280;74718;40.778;21.400;2024-02-23T04:24:56;93698.89;;;7.22;65.53
84492;BME280;74718;40.778;21.400;2024-02-23T04:27:22;93692.77;;;7.21;65.77
84492;BME280;74718;40.778;21.400;2024-02-23T04:29:47;93687.66;;;7.25;65.76
84492;BME280;74718;40.778;21.400;2024-02-23T04:32:13;93689.56;;;7.23;65.44
84492;BME280;74718;40.778;21.400;2024-02-23T04:34:38;93688.92;;;7.23;65.50
84492;BME280;74718;40.778;21.400;2024-02-23T04:37:05;93680.17;;;7.25;65.30
84492;BME280;74718;40.778;21.400;2024-02-23T04:39:31;93683.00;;;7.26;65.10
84492;BME280;74718;40.778;21.400;2024-02-23T04:41:56;93678.44;;;7.20;65.08
84492;BME280;74718;40.778;21.400;2024-02-23T04:44:22;93684.40;;;7.18;64.90
84492;BME280;74718;40.778;21.400;2024-02-23T04:46:48;93691.35;;;7.23;64.49
84492;BME280;74718;40.778;21.400;2024-02-23T04:49:13;93700.83;;;7.21;64.59
84492;BME280;74718;40.778;21.400;2024-02-23T04:51:39;93701.17;;;7.17;64.34
84492;BME280;74718;40.778;21.400;2024-02-23T04:54:04;93692.86;;;7.09;64.79
84492;BME280;74718;40.778;21.400;2024-02-23T04:56:30;93695.64;;;7.05;64.95
84492;BME280;74718;40.778;21.400;2024-02-23T04:58:55;93695.21;;;7.03;64.80
84492;BME280;74718;40.778;21.400;2024-02-23T05:01:21;93697.36;;;6.94;64.35
84492;BME280;74718;40.778;21.400;2024-02-23T05:03:46;93698.81;;;6.80;64.91
84492;BME280;74718;40.778;21.400;2024-02-23T05:06:12;93700.74;;;6.78;64.87
84492;BME280;74718;40.778;21.400;2024-02-23T05:08:38;93695.11;;;6.71;65.16
84492;BME280;74718;40.778;21.400;2024-02-23T05:11:03;93702.33;;;6.75;65.15
84492;BME280;74718;40.778;21.400;2024-02-23T05:13:29;93704.95;;;6.81;65.04
84492;BME280;74718;40.778;21.400;2024-02-23T05:15:58;93705.81;;;6.91;65.01
84492;BME280;74718;40.778;21.400;2024-02-23T05:18:23;93708.98;;;6.86;64.67
84492;BME280;74718;40.778;21.400;2024-02-23T05:20:49;93716.55;;;6.73;64.76
84492;BME280;74718;40.778;21.400;2024-02-23T05:23:14;93720.75;;;6.66;64.72
84492;BME280;74718;40.778;21.400;2024-02-23T05:25:43;93717.47;;;6.57;64.56
84492;BME280;74718;40.778;21.400;2024-02-23T05:28:08;93719.67;;;6.43;64.68
84492;BME280;74718;40.778;21.400;2024-02-23T05:30:34;93710.27;;;6.31;64.82
84492;BME280;74718;40.778;21.400;2024-02-23T05:32:59;93715.87;;;6.22;65.01
84492;BME280;74718;40.778;21.400;2024-02-23T05:35:28;93717.75;;;6.15;65.27
84492;BME280;74718;40.778;21.400;2024-02-23T05:37:54;93721.73;;;6.13;65.16
84492;BME280;74718;40.778;21.400;2024-02-23T05:40:20;93723.40;;;6.01;65.07
84492;BME280;74718;40.778;21.400;2024-02-23T05:42:46;93724.90;;;5.97;65.17
84492;BME280;74718;40.778;21.400;2024-02-23T05:45:12;93718.43;;;5.96;65.03
84492;BME280;74718;40.778;21.400;2024-02-23T05:47:38;93723.19;;;6.07;65.19
84492;BME280;74718;40.778;21.400;2024-02-23T05:50:05;93723.58;;;6.16;65.44
84492;BME280;74718;40.778;21.400;2024-02-23T05:52:32;93724.78;;;6.22;65.35
84492;BME280;74718;40.778;21.400;2024-02-23T05:54:58;93735.97;;;6.29;65.38
84492;BME280;74718;40.778;21.400;2024-02-23T05:57:26;93738.45;;;6.47;65.21
84492;BME280;74718;40.778;21.400;2024-02-23T05:59:52;93735.39;;;6.60;64.87
84492;BME280;74718;40.778;21.400;2024-02-23T06:02:17;93729.44;;;6.54;64.65
84492;BME280;74718;40.778;21.400;2024-02-23T06:04:43;93753.20;;;6.68;64.40
84492;BME280;74718;40.778;21.400;2024-02-23T06:07:08;93750.20;;;6.74;64.28
84492;BME280;74718;40.778;21.400;2024-02-23T06:09:34;93752.86;;;6.66;64.25
84492;BME280;74718;40.778;21.400;2024-02-23T06:12:00;93755.13;;;6.67;64.18
84492;BME280;74718;40.778;21.400;2024-02-23T06:14:26;93758.77;;;6.64;63.87
84492;BME280;74718;40.778;21.400;2024-02-23T06:16:51;93761.77;;;6.63;63.96
84492;BME280;74718;40.778;21.400;2024-02-23T06:19:17;93763.70;;;6.81;63.76
84492;BME280;74718;40.778;21.400;2024-02-23T06:21:42;93764.30;;;6.97;63.42
84492;BME280;74718;40.778;21.400;2024-02-23T06:24:08;93756.79;;;7.16;63.44
84492;BME280;74718;40.778;21.400;2024-02-23T06:26:34;93758.31;;;7.42;63.00
84492;BME280;74718;40.778;21.400;2024-02-23T06:29:00;93754.23;;;7.61;62.81
84492;BME280;74718;40.778;21.400;2024-02-23T06:31:26;93759.16;;;7.86;62.37
84492;BME280;74718;40.778;21.400;2024-02-23T06:33:51;93756.30;;;8.04;61.86
84492;BME280;74718;40.778;21.400;2024-02-23T06:36:17;93756.10;;;8.24;61.50
84492;BME280;74718;40.778;21.400;2024-02-23T06:38:46;93752.45;;;8.39;61.33
84492;BME280;74718;40.778;21.400;2024-02-23T06:41:11;93750.71;;;8.57;61.13
84492;BME280;74718;40.778;21.400;2024-02-23T06:43:37;93748.64;;;8.68;60.97
84492;BME280;74718;40.778;21.400;2024-02-23T06:46:09;93753.37;;;8.92;60.40
84492;BME280;74718;40.778;21.400;2024-02-23T06:48:35;93754.28;;;9.23;59.82
84492;BME280;74718;40.778;21.400;2024-02-23T06:51:02;93754.05;;;9.43;59.51
84492;BME280;74718;40.778;21.400;2024-02-23T06:53:29;93752.44;;;9.61;59.22
84492;BME280;74718;40.778;21.400;2024-02-23T06:55:54;93748.08;;;9.87;58.84
84492;BME280;74718;40.778;21.400;2024-02-23T06:58:19;93753.42;;;10.09;58.55
84492;BME280;74718;40.778;21.400;2024-02-23T07:00:45;93757.84;;;10.22;58.34
84492;BME280;74718;40.778;21.400;2024-02-23T07:03:11;93755.88;;;10.37;58.21
84492;BME280;74718;40.778;21.400;2024-02-23T07:05:36;93753.92;;;10.58;57.88
84492;BME280;74718;40.778;21.400;2024-02-23T07:08:02;93747.22;;;10.81;57.77
84492;BME280;74718;40.778;21.400;2024-02-23T07:10:29;93741.23;;;11.05;57.36
84492;BME280;74718;40.778;21.400;2024-02-23T07:12:54;93743.14;;;11.29;57.00
84492;BME280;74718;40.778;21.400;2024-02-23T07:15:21;93741.91;;;11.47;56.63
84492;BME280;74718;40.778;21.400;2024-02-23T07:17:47;93740.65;;;11.67;56.09
84492;BME280;74718;40.778;21.400;2024-02-23T07:20:13;93738.17;;;11.86;55.26
84492;BME280;74718;40.778;21.400;2024-02-23T07:22:38;93736.02;;;12.04;54.87
84492;BME280;74718;40.778;21.400;2024-02-23T07:25:05;93735.11;;;12.21;54.56
84492;BME280;74718;40.778;21.400;2024-02-23T07:27:31;93735.80;;;12.46;53.96
84492;BME280;74718;40.778;21.400;2024-02-23T07:29:57;93731.89;;;12.74;53.29
84492;BME280;74718;40.778;21.400;2024-02-23T07:32:22;93730.30;;;12.99;52.19
84492;BME280;74718;40.778;21.400;2024-02-23T07:34:48;93726.98;;;13.19;52.32
84492;BME280;74718;40.778;21.400;2024-02-23T07:37:14;93726.48;;;13.42;51.69
84492;BME280;74718;40.778;21.400;2024-02-23T07:39:40;93724.23;;;13.64;50.88
84492;BME280;74718;40.778;21.400;2024-02-23T07:42:05;93724.66;;;13.79;50.33
84492;BME280;74718;40.778;21.400;2024-02-23T07:44:31;93722.77;;;13.95;49.60
84492;BME280;74718;40.778;21.400;2024-02-23T07:46:57;93722.94;;;14.14;48.92
84492;BME280;74718;40.778;21.400;2024-02-23T07:49:24;93723.40;;;14.33;48.72
84492;BME280;74718;40.778;21.400;2024-02-23T07:51:52;93726.74;;;14.40;48.53
84492;BME280;74718;40.778;21.400;2024-02-23T07:54:17;93720.59;;;14.37;47.89
84492;BME280;74718;40.778;21.400;2024-02-23T07:56:43;93720.40;;;14.39;47.58
84492;BME280;74718;40.778;21.400;2024-02-23T07:59:08;93714.63;;;14.66;46.88
84492;BME280;74718;40.778;21.400;2024-02-23T08:01:34;93709.95;;;14.95;46.52
84492;BME280;74718;40.778;21.400;2024-02-23T08:03:59;93709.47;;;15.20;45.92
84492;BME280;74718;40.778;21.400;2024-02-23T08:06:25;93706.98;;;15.35;45.65
84492;BME280;74718;40.778;21.400;2024-02-23T08:08:51;93714.84;;;15.29;45.28
84492;BME280;74718;40.778;21.400;2024-02-23T08:11:19;93715.17;;;15.03;45.14
84492;BME280;74718;40.778;21.400;2024-02-23T08:13:47;93716.16;;;15.08;44.37
84492;BME280;74718;40.778;21.400;2024-02-23T08:16:13;93708.44;;;15.28;44.43
84492;BME280;74718;40.778;21.400;2024-02-23T08:18:40;93709.70;;;15.52;44.14
84492;BME280;74718;40.778;21.400;2024-02-23T08:21:06;93708.20;;;15.68;43.52
84492;BME280;74718;40.778;21.400;2024-02-23T08:23:32;93712.62;;;15.94;43.40
84492;BME280;74718;40.778;21.400;2024-02-23T08:25:58;93706.22;;;16.10;43.02
84492;BME280;74718;40.778;21.400;2024-02-23T08:28:25;93704.49;;;16.33;42.08
84492;BME280;74718;40.778;21.400;2024-02-23T08:30:50;93703.70;;;16.50;42.13
84492;BME280;74718;40.778;21.400;2024-02-23T08:33:16;93701.90;;;16.36;41.61
84492;BME280;74718;40.778;21.400;2024-02-23T08:35:41;93704.65;;;16.37;41.86
84492;BME280;74718;40.778;21.400;2024-02-23T08:38:08;93699.86;;;16.33;41.61
84492;BME280;74718;40.778;21.400;2024-02-23T08:40:34;93705.31;;;16.33;41.86
84492;BME280;74718;40.778;21.400;2024-02-23T08:43:00;93700.56;;;16.30;41.53
84492;BME280;74718;40.778;21.400;2024-02-23T08:45:25;93703.50;;;16.14;41.60
84492;BME280;74718;40.778;21.400;2024-02-23T08:47:51;93709.38;;;16.04;41.82
84492;BME280;74718;40.778;21.400;2024-02-23T08:50:16;93708.73;;;15.72;41.81
84492;BME280;74718;40.778;21.400;2024-02-23T08:52:42;93709.65;;;15.54;42.04
84492;BME280;74718;40.778;21.400;2024-02-23T08:55:07;93718.88;;;15.41;42.02
84492;BME280;74718;40.778;21.400;2024-02-23T08:57:33;93720.98;;;15.28;42.11
84492;BME280;74718;40.778;21.400;2024-02-23T08:59:59;93717.23;;;15.13;42.43
84492;BME280;74718;40.778;21.400;2024-02-23T09:02:25;93716.35;;;15.00;42.43
84492;BME280;74718;40.778;21.400;2024-02-23T09:04:51;93711.77;;;14.97;42.75
84492;BME280;74718;40.778;21.400;2024-02-23T09:07:16;93715.72;;;14.92;42.64
84492;BME280;74718;40.778;21.400;2024-02-23T09:09:45;93718.19;;;14.81;42.42
84492;BME280;74718;40.778;21.400;2024-02-23T09:12:11;93717.23;;;14.77;42.92
84492;BME280;74718;40.778;21.400;2024-02-23T09:14:39;93716.75;;;14.75;43.08
84492;BME280;74718;40.778;21.400;2024-02-23T09:17:06;93723.46;;;14.76;43.07
84492;BME280;74718;40.778;21.400;2024-02-23T09:19:34;93719.08;;;14.74;42.90
84492;BME280;74718;40.778;21.400;2024-02-23T09:21:59;93720.79;;;14.68;43.19
84492;BME280;74718;40.778;21.400;2024-02-23T09:24:26;93723.25;;;14.60;42.99
84492;BME280;74718;40.778;21.400;2024-02-23T09:26:54;93720.95;;;14.54;43.08
84492;BME280;74718;40.778;21.400;2024-02-23T09:29:19;93719.81;;;14.56;43.22
84492;BME280;74718;40.778;21.400;2024-02-23T09:31:47;93718.47;;;14.52;43.19
84492;BME280;74718;40.778;21.400;2024-02-23T09:34:13;93717.63;;;14.54;43.23
84492;BME280;74718;40.778;21.400;2024-02-23T09:36:38;93716.02;;;14.63;43.21
84492;BME280;74718;40.778;21.400;2024-02-23T09:39:04;93714.77;;;14.73;43.18
84492;BME280;74718;40.778;21.400;2024-02-23T09:41:30;93711.53;;;14.80;43.05
84492;BME280;74718;40.778;21.400;2024-02-23T09:43:58;93710.79;;;14.96;42.78
84492;BME280;74718;40.778;21.400;2024-02-23T09:46:25;93709.45;;;15.07;42.82
84492;BME280;74718;40.778;21.400;2024-02-23T09:48:51;93701.01;;;15.32;42.40
84492;BME280;74718;40.778;21.400;2024-02-23T09:51:17;93700.15;;;15.65;41.95
84492;BME280;74718;40.778;21.400;2024-02-23T09:53:43;93702.45;;;15.97;41.62
84492;BME280;74718;40.778;21.400;2024-02-23T09:56:10;93704.66;;;16.16;41.07
84492;BME280;74718;40.778;21.400;2024-02-23T09:58:36;93707.66;;;16.08;41.42
84492;BME280;74718;40.778;21.400;2024-02-23T10:01:03;93698.48;;;16.30;41.24
84492;BME280;74718;40.778;21.400;2024-02-23T10:03:29;93692.05;;;16.35;41.02
84492;BME280;74718;40.778;21.400;2024-02-23T10:05:58;93698.24;;;16.33;41.25
84492;BME280;74718;40.778;21.400;2024-02-23T10:08:27;93697.02;;;16.25;41.26
84492;BME280;74718;40.778;21.400;2024-02-23T10:10:53;93699.14;;;16.05;41.21
84492;BME280;74718;40.778;21.400;2024-02-23T10:13:23;93701.54;;;15.82;41.55
84492;BME280;74718;40.778;21.400;2024-02-23T10:15:52;93704.32;;;15.65;42.01
84492;BME280;74718;40.778;21.400;2024-02-23T10:18:19;93709.19;;;15.56;42.18
84492;BME280;74718;40.778;21.400;2024-02-23T10:20:45;93699.15;;;15.81;42.01
84492;BME280;74718;40.778;21.400;2024-02-23T10:23:11;93700.70;;;16.04;42.33
84492;BME280;74718;40.778;21.400;2024-02-23T10:25:37;93701.25;;;16.12;41.96
84492;BME280;74718;40.778;21.400;2024-02-23T10:28:03;93702.50;;;16.01;41.81
84492;BME280;74718;40.778;21.400;2024-02-23T10:30:29;93697.33;;;16.08;41.43
84492;BME280;74718;40.778;21.400;2024-02-23T10:32:56;93696.52;;;16.10;41.64
84492;BME280;74718;40.778;21.400;2024-02-23T10:35:23;93701.13;;;16.15;41.58
84492;BME280;74718;40.778;21.400;2024-02-23T10:37:49;93705.13;;;16.16;41.15
84492;BME280;74718;40.778;21.400;2024-02-23T10:40:17;93699.77;;;16.08;41.34
84492;BME280;74718;40.778;21.400;2024-02-23T10:42:47;93691.88;;;15.95;41.44
84492;BME280;74718;40.778;21.400;2024-02-23T10:45:17;93687.64;;;15.80;41.52
84492;BME280;74718;40.778;21.400;2024-02-23T10:47:43;93685.11;;;15.71;41.58
84492;BME280;74718;40.778;21.400;2024-02-23T10:50:09;93686.45;;;15.67;41.72
84492;BME280;74718;40.778;21.400;2024-02-23T10:52:37;93680.38;;;15.66;41.95
84492;BME280;74718;40.778;21.400;2024-02-23T10:55:04;93678.23;;;15.64;42.13
84492;BME280;74718;40.778;21.400;2024-02-23T10:57:31;93684.52;;;15.60;41.86
84492;BME280;74718;40.778;21.400;2024-02-23T10:59:58;93679.73;;;15.60;42.04
84492;BME280;74718;40.778;21.400;2024-02-23T11:02:26;93679.39;;;15.47;42.40
84492;BME280;74718;40.778;21.400;2024-02-23T11:04:55;93677.66;;;15.37;42.63
84492;BME280;74718;40.778;21.400;2024-02-23T11:07:22;93678.66;;;15.37;43.03
84492;BME280;74718;40.778;21.400;2024-02-23T11:09:54;93676.34;;;15.35;42.95
84492;BME280;74718;40.778;21.400;2024-02-23T11:12:25;93677.66;;;15.29;43.02
84492;BME280;74718;40.778;21.400;2024-02-23T11:14:51;93684.84;;;15.27;43.13
84492;BME280;74718;40.778;21.400;2024-02-23T11:17:21;93682.77;;;15.25;42.77
84492;BME280;74718;40.778;21.400;2024-02-23T11:19:49;93675.60;;;15.18;42.91
84492;BME280;74718;40.778;21.400;2024-02-23T11:22:26;93678.30;;;15.17;43.12
84492;BME280;74718;40.778;21.400;2024-02-23T11:24:53;93684.50;;;15.18;43.16
84492;BME280;74718;40.778;21.400;2024-02-23T11:27:19;93678.38;;;15.09;42.96
84492;BME280;74718;40.778;21.400;2024-02-23T11:29:46;93678.72;;;15.06;42.89
84492;BME280;74718;40.778;21.400;2024-02-23T11:32:16;93676.98;;;15.05;42.91
84492;BME280;74718;40.778;21.400;2024-02-23T11:34:54;93673.79;;;15.06;43.03
84492;BME280;74718;40.778;21.400;2024-02-23T11:37:21;93671.31;;;15.12;43.11
84492;BME280;74718;40.778;21.400;2024-02-23T11:39:48;93666.47;;;15.17;43.04
84492;BME280;74718;40.778;21.400;2024-02-23T11:42:14;93667.94;;;15.18;42.89
84492;BME280;74718;40.778;21.400;2024-02-23T11:44:40;93661.14;;;15.20;43.18
84492;BME280;74718;40.778;21.400;2024-02-23T11:47:07;93652.66;;;15.28;42.91
84492;BME280;74718;40.778;21.400;2024-02-23T11:49:33;93648.41;;;15.30;42.84
84492;BME280;74718;40.778;21.400;2024-02-23T11:51:58;93649.66;;;15.26;42.77
84492;BME280;74718;40.778;21.400;2024-02-23T11:54:24;93641.70;;;15.16;42.49
84492;BME280;74718;40.778;21.400;2024-02-23T11:56:50;93641.09;;;15.09;42.24
84492;BME280;74718;40.778;21.400;2024-02-23T11:59:21;93632.38;;;15.06;42.45
84492;BME280;74718;40.778;21.400;2024-02-23T12:01:47;93634.65;;;15.06;42.35
84492;BME280;74718;40.778;21.400;2024-02-23T12:04:14;93638.81;;;15.09;42.38
84492;BME280;74718;40.778;21.400;2024-02-23T12:06:40;93631.91;;;15.12;42.28
84492;BME280;74718;40.778;21.400;2024-02-23T12:09:05;93634.75;;;15.14;42.47
84492;BME280;74718;40.778;21.400;2024-02-23T12:11:32;93636.20;;;15.17;42.46
84492;BME280;74718;40.778;21.400;2024-02-23T12:13:57;93632.10;;;15.37;42.80
84492;BME280;74718;40.778;21.400;2024-02-23T12:16:23;93628.64;;;15.45;42.26
84492;BME280;74718;40.778;21.400;2024-02-23T12:18:56;93626.02;;;15.46;42.02
84492;BME280;74718;40.778;21.400;2024-02-23T12:21:23;93623.57;;;15.46;42.11
84492;BME280;74718;40.778;21.400;2024-02-23T12:23:49;93621.09;;;15.43;42.13
84492;BME280;74718;40.778;21.400;2024-02-23T12:26:17;93618.04;;;15.46;42.11
84492;BME280;74718;40.778;21.400;2024-02-23T12:28:44;93610.92;;;15.47;41.90
84492;BME280;74718;40.778;21.400;2024-02-23T12:31:10;93607.83;;;15.55;41.90
84492;BME280;74718;40.778;21.400;2024-02-23T12:33:40;93601.81;;;15.82;41.46
84492;BME280;74718;40.778;21.400;2024-02-23T12:36:07;93595.23;;;16.07;41.29
84492;BME280;74718;40.778;21.400;2024-02-23T12:38:33;93591.19;;;16.31;40.49
84492;BME280;74718;40.778;21.400;2024-02-23T12:41:00;93588.68;;;16.52;40.75
84492;BME280;74718;40.778;21.400;2024-02-23T12:43:25;93589.94;;;16.57;40.12
84492;BME280;74718;40.778;21.400;2024-02-23T12:45:53;93584.04;;;16.64;40.17
84492;BME280;74718;40.778;21.400;2024-02-23T12:48:19;93583.37;;;16.82;40.07
84492;BME280;74718;40.778;21.400;2024-02-23T12:50:45;93584.19;;;16.96;39.33
84492;BME280;74718;40.778;21.400;2024-02-23T12:53:37;93577.40;;;17.04;39.06
84492;BME280;74718;40.778;21.400;2024-02-23T12:56:08;93575.55;;;16.88;39.25
84492;BME280;74718;40.778;21.400;2024-02-23T12:58:39;93575.94;;;16.72;39.21
84492;BME280;74718;40.778;21.400;2024-02-23T13:01:05;93572.32;;;16.59;39.35
84492;BME280;74718;40.778;21.400;2024-02-23T13:03:33;93566.14;;;16.53;39.50
84492;BME280;74718;40.778;21.400;2024-02-23T13:05:58;93571.21;;;16.45;39.25
84492;BME280;74718;40.778;21.400;2024-02-23T13:08:25;93574.20;;;16.34;39.41
84492;BME280;74718;40.778;21.400;2024-02-23T13:10:51;93575.14;;;16.31;39.55
84492;BME280;74718;40.778;21.400;2024-02-23T13:13:18;93572.91;;;16.29;39.11
84492;BME280;74718;40.778;21.400;2024-02-23T13:15:45;93575.77;;;16.26;39.28
84492;BME280;74718;40.778;21.400;2024-02-23T13:18:11;93577.33;;;16.31;39.14
84492;BME280;74718;40.778;21.400;2024-02-23T13:20:40;93581.42;;;16.41;39.33
84492;BME280;74718;40.778;21.400;2024-02-23T13:23:10;93586.30;;;16.44;39.31
84492;BME280;74718;40.778;21.400;2024-02-23T13:25:38;93582.03;;;16.47;39.19
84492;BME280;74718;40.778;21.400;2024-02-23T13:28:05;93567.96;;;16.54;38.99